Time;durP1;ratioP1;P1;durP2;ratioP2;P2;SDS_P1;SDS_P2;PMS_P1;PMS_P2;Temp;Humidity;BMP_temperature;BMP_pressure;BME280_temperature;BME280_humidity;BME280_pressure;Samples;Min_cycle;Max_cycle;Signal;HPM_P1;HPM_P2
2022/09/21 00:01:10;;;;;;;6.70;2.90;;;7.10;88.70;;;;;;5077936;28;20593;-70
2022/09/21 00:03:37;;;;;;;5.43;2.65;;;7.10;88.80;;;;;;5070107;28;20499;-69
2022/09/21 00:06:08;;;;;;;6.75;2.28;;;7.10;88.80;;;;;;5053446;28;20087;-69
2022/09/21 00:08:34;;;;;;;9.48;2.33;;;7.10;89.20;;;;;;5069689;28;20524;-69
2022/09/21 00:11:03;;;;;;;8.53;2.80;;;7.00;89.00;;;;;;5076666;28;20071;-69
2022/09/21 00:13:30;;;;;;;7.40;2.58;;;7.00;89.20;;;;;;5081864;28;20078;-69
2022/09/21 00:15:56;;;;;;;5.60;2.45;;;7.00;89.10;;;;;;5096823;28;20094;-69
2022/09/21 00:18:22;;;;;;;5.03;2.57;;;6.90;89.00;;;;;;5070317;28;20031;-69
2022/09/21 00:20:48;;;;;;;6.43;2.05;;;6.90;88.90;;;;;;5084779;28;20083;-69
2022/09/21 00:23:14;;;;;;;6.18;2.22;;;6.90;88.90;;;;;;5085861;28;20055;-69
2022/09/21 00:25:40;;;;;;;7.40;2.50;;;6.90;89.10;;;;;;5086085;28;20097;-69
2022/09/21 00:28:06;;;;;;;2.73;1.90;;;6.90;88.90;;;;;;5073981;28;20409;-69
2022/09/21 00:30:32;;;;;;;4.57;2.00;;;6.90;88.90;;;;;;5072566;28;20271;-69
2022/09/21 00:32:58;;;;;;;7.63;2.75;;;6.90;89.00;;;;;;5064326;28;20047;-69
2022/09/21 00:35:24;;;;;;;5.43;2.50;;;6.80;89.00;;;;;;5065166;28;20040;-70
2022/09/21 00:37:49;;;;;;;7.60;2.37;;;6.80;88.80;;;;;;5083561;28;20423;-70
2022/09/21 00:40:15;;;;;;;4.57;2.40;;;6.80;88.90;;;;;;5085670;28;20040;-69
2022/09/21 00:42:41;;;;;;;4.13;1.93;;;6.80;88.80;;;;;;5052759;28;20510;-70
2022/09/21 00:45:19;;;;;;;6.53;2.70;;;6.70;88.90;;;;;;5069128;28;20043;-70
2022/09/21 00:47:51;;;;;;;4.45;2.20;;;6.70;89.00;;;;;;5087525;27;20036;-69
2022/09/21 00:50:22;;;;;;;3.97;1.83;;;6.70;88.90;;;;;;5078820;28;20115;-69
2022/09/21 00:52:51;;;;;;;4.78;2.10;;;6.70;89.00;;;;;;5093810;28;20043;-69
2022/09/21 00:55:30;;;;;;;3.97;2.15;;;6.60;89.00;;;;;;5068051;28;20036;-69
2022/09/21 00:58:01;;;;;;;6.03;2.20;;;6.60;88.80;;;;;;5068663;28;20551;-69
2022/09/21 01:00:26;;;;;;;6.10;2.65;;;6.60;88.90;;;;;;5069038;28;20537;-69
2022/09/21 01:03:00;;;;;;;4.33;2.00;;;6.50;88.90;;;;;;5094047;28;20035;-69
2022/09/21 01:05:26;;;;;;;6.22;1.98;;;6.50;88.90;;;;;;5052537;28;20076;-69
2022/09/21 01:08:00;;;;;;;5.13;2.05;;;6.50;88.90;;;;;;5084713;28;20054;-69
2022/09/21 01:10:30;;;;;;;5.28;1.88;;;6.50;88.90;;;;;;5085459;28;20055;-69
2022/09/21 01:13:15;;;;;;;5.35;2.00;;;6.40;88.90;;;;;;5084489;28;20044;-69
2022/09/21 01:15:54;;;;;;;6.47;2.15;;;6.40;88.70;;;;;;5085871;28;20534;-69
2022/09/21 01:18:51;;;;;;;4.30;2.17;;;6.40;88.90;;;;;;5085796;28;20039;-69
2022/09/21 01:21:26;;;;;;;4.75;2.10;;;6.40;89.00;;;;;;5063188;28;20063;-69
2022/09/21 01:24:24;;;;;;;4.90;2.15;;;6.40;89.00;;;;;;5075279;28;20087;-69
2022/09/21 01:27:23;;;;;;;4.85;2.10;;;6.40;89.10;;;;;;5068060;28;20048;-69
2022/09/21 01:30:03;;;;;;;6.20;1.75;;;6.40;88.90;;;;;;5090962;28;20143;-70
2022/09/21 01:32:37;;;;;;;3.25;1.70;;;6.30;88.90;;;;;;5062616;28;20069;-70
2022/09/21 01:35:11;;;;;;;8.38;2.53;;;6.30;88.80;;;;;;5084595;28;20050;-70
2022/09/21 01:37:43;;;;;;;5.00;1.77;;;6.30;88.80;;;;;;5064306;28;20135;-70
2022/09/21 01:40:21;;;;;;;5.07;1.98;;;6.20;88.70;;;;;;5082439;28;20388;-70
2022/09/21 01:42:49;;;;;;;3.22;1.70;;;6.20;88.80;;;;;;5091693;28;20477;-70
2022/09/21 01:45:20;;;;;;;3.20;1.73;;;6.20;88.70;;;;;;5085592;28;20336;-69
2022/09/21 01:47:48;;;;;;;4.55;1.52;;;6.20;89.10;;;;;;5091887;28;20173;-69
2022/09/21 01:50:19;;;;;;;6.45;1.85;;;6.10;89.20;;;;;;5076377;28;20036;-69
2022/09/21 01:53:01;;;;;;;3.38;1.90;;;6.20;89.80;;;;;;5085474;28;20500;-70
2022/09/21 01:55:32;;;;;;;2.70;1.75;;;6.20;89.50;;;;;;5067711;28;20032;-70
2022/09/21 01:58:10;;;;;;;4.30;2.05;;;6.10;89.30;;;;;;5092642;28;20050;-69
2022/09/21 02:00:38;;;;;;;4.70;1.83;;;6.10;89.20;;;;;;5084812;28;20059;-69
2022/09/21 02:03:11;;;;;;;5.97;1.90;;;6.00;89.10;;;;;;5076805;28;20047;-69
2022/09/21 02:05:37;;;;;;;4.97;1.95;;;6.00;90.00;;;;;;5084780;28;20051;-69
2022/09/21 02:08:05;;;;;;;3.00;1.40;;;6.00;90.10;;;;;;5067403;28;20614;-69
2022/09/21 02:10:52;;;;;;;3.15;1.58;;;6.00;90.40;;;;;;5060512;28;20059;-69
2022/09/21 02:13:22;;;;;;;8.60;1.50;;;6.00;90.50;;;;;;5063418;28;20572;-69
2022/09/21 02:16:05;;;;;;;20.08;2.03;;;6.00;90.40;;;;;;5081395;28;20036;-70
2022/09/21 02:18:34;;;;;;;2.88;1.23;;;6.00;90.40;;;;;;5075915;28;20066;-69
2022/09/21 02:21:03;;;;;;;2.30;1.05;;;5.90;90.40;;;;;;5076429;28;20584;-69
2022/09/21 02:23:42;;;;;;;1.10;0.60;;;5.90;90.60;;;;;;5058807;28;20090;-69
2022/09/21 02:26:48;;;;;;;2.95;0.90;;;5.90;90.60;;;;;;5072814;28;20044;-69
2022/09/21 02:29:25;;;;;;;1.05;0.80;;;5.80;90.70;;;;;;5029254;28;20508;-70
2022/09/21 02:31:59;;;;;;;1.75;0.57;;;5.80;90.70;;;;;;5088428;28;20575;-70
2022/09/21 02:34:33;;;;;;;0.95;0.50;;;5.80;90.70;;;;;;5074251;28;20043;-69
2022/09/21 02:37:10;;;;;;;1.92;0.50;;;5.80;90.80;;;;;;5086837;28;20119;-69
2022/09/21 02:39:54;;;;;;;2.15;0.75;;;5.70;90.80;;;;;;5088478;28;20597;-69
2022/09/21 02:42:32;;;;;;;2.90;0.50;;;5.70;90.80;;;;;;5080716;28;20051;-70
2022/09/21 02:45:15;;;;;;;3.22;0.50;;;5.70;90.90;;;;;;5085878;28;20032;-70
2022/09/21 02:47:45;;;;;;;5.00;0.85;;;5.70;90.80;;;;;;5077437;28;20048;-70
2022/09/21 02:50:19;;;;;;;1.30;0.65;;;5.70;90.70;;;;;;5088250;28;20052;-70
2022/09/21 02:52:45;;;;;;;2.15;0.50;;;5.80;90.90;;;;;;5082675;28;20515;-70
2022/09/21 02:55:14;;;;;;;1.10;0.65;;;5.80;90.80;;;;;;5071257;28;20047;-70
2022/09/21 02:57:40;;;;;;;1.83;0.80;;;5.80;90.80;;;;;;5094617;28;20046;-70
2022/09/21 03:00:07;;;;;;;2.08;0.50;;;5.80;90.70;;;;;;5089071;28;20340;-70
2022/09/21 03:02:41;;;;;;;2.10;0.98;;;5.80;90.70;;;;;;5093748;28;20028;-70
2022/09/21 03:05:08;;;;;;;1.70;0.70;;;5.70;90.80;;;;;;5080899;28;20040;-70
2022/09/21 03:07:35;;;;;;;1.00;0.50;;;5.70;90.60;;;;;;5067989;28;20061;-70
2022/09/21 03:10:00;;;;;;;2.83;0.70;;;5.70;90.70;;;;;;5087704;28;20010;-69
2022/09/21 03:12:26;;;;;;;1.93;0.60;;;5.60;90.70;;;;;;5080893;28;20123;-69
2022/09/21 03:14:52;;;;;;;3.40;0.97;;;5.60;90.60;;;;;;5085540;28;20040;-69
2022/09/21 03:17:18;;;;;;;1.92;0.70;;;5.60;90.60;;;;;;5065995;28;20036;-69
2022/09/21 03:19:44;;;;;;;3.22;0.70;;;5.60;90.70;;;;;;5073135;28;20085;-69
2022/09/21 03:22:10;;;;;;;1.87;0.90;;;5.60;90.80;;;;;;5078289;28;20058;-69
2022/09/21 03:24:44;;;;;;;2.90;0.90;;;5.60;90.90;;;;;;5069784;28;20820;-69
2022/09/21 03:27:10;;;;;;;5.22;0.98;;;5.60;90.80;;;;;;5063596;28;20063;-70
2022/09/21 03:29:36;;;;;;;2.95;0.85;;;5.60;91.00;;;;;;5081329;28;20043;-70
2022/09/21 03:32:02;;;;;;;2.90;1.10;;;5.60;91.60;;;;;;5073707;28;20032;-70
2022/09/21 03:34:28;;;;;;;3.65;0.70;;;5.70;91.60;;;;;;5076675;28;20040;-70
2022/09/21 03:36:54;;;;;;;2.67;0.60;;;5.70;91.60;;;;;;5084847;28;20042;-70
2022/09/21 03:39:19;;;;;;;2.53;0.63;;;5.70;91.70;;;;;;5087520;28;20505;-70
2022/09/21 03:41:45;;;;;;;1.50;0.53;;;5.80;92.30;;;;;;5067174;28;20107;-70
2022/09/21 03:44:11;;;;;;;0.87;0.50;;;5.80;92.90;;;;;;5051262;28;20297;-70
2022/09/21 03:46:36;;;;;;;1.47;0.50;;;5.80;92.90;;;;;;5053054;28;20051;-70
2022/09/21 03:49:02;;;;;;;1.83;0.50;;;5.80;92.80;;;;;;5086822;28;20063;-70
2022/09/21 03:51:31;;;;;;;2.33;0.60;;;5.80;93.10;;;;;;5077249;28;20054;-70
2022/09/21 03:53:57;;;;;;;2.53;1.00;;;5.90;93.40;;;;;;5069970;28;20506;-70
2022/09/21 03:56:22;;;;;;;4.23;0.73;;;5.80;93.10;;;;;;5086744;28;20351;-69
2022/09/21 03:58:48;;;;;;;4.73;1.03;;;5.80;93.00;;;;;;5074970;28;20047;-69
2022/09/21 04:01:14;;;;;;;2.00;0.70;;;5.80;93.00;;;;;;5079855;28;20051;-69
2022/09/21 04:03:39;;;;;;;2.83;0.80;;;5.80;93.40;;;;;;5065747;28;20080;-69
2022/09/21 04:06:10;;;;;;;1.50;0.80;;;5.80;93.40;;;;;;5091177;28;20514;-70
2022/09/21 04:08:36;;;;;;;2.58;0.77;;;5.80;93.50;;;;;;5086345;28;20048;-70
2022/09/21 04:11:09;;;;;;;2.00;0.70;;;5.80;93.60;;;;;;5093007;28;20507;-70
2022/09/21 04:13:35;;;;;;;2.08;0.60;;;5.80;93.60;;;;;;5086311;28;20115;-70
2022/09/21 04:16:01;;;;;;;2.92;0.90;;;5.80;93.60;;;;;;5055458;28;20530;-70
2022/09/21 04:18:26;;;;;;;2.03;0.70;;;5.80;93.70;;;;;;5086547;28;20043;-70
2022/09/21 04:20:52;;;;;;;2.20;0.70;;;5.80;93.70;;;;;;5092025;28;20044;-70
2022/09/21 04:23:18;;;;;;;2.27;0.70;;;5.80;93.80;;;;;;5074715;28;20067;-70
2022/09/21 04:25:47;;;;;;;1.45;0.63;;;5.80;93.80;;;;;;5049859;28;20051;-70
2022/09/21 04:28:13;;;;;;;2.45;0.90;;;5.70;93.70;;;;;;5092819;28;20051;-70
2022/09/21 04:30:39;;;;;;;2.50;1.40;;;5.70;93.80;;;;;;5085831;28;20040;-70
2022/09/21 04:33:05;;;;;;;2.20;0.80;;;5.70;93.80;;;;;;5075659;28;20317;-70
2022/09/21 04:35:30;;;;;;;2.40;0.83;;;5.70;93.90;;;;;;5063571;28;20036;-70
2022/09/21 04:37:56;;;;;;;3.53;0.57;;;5.70;93.90;;;;;;5075054;28;20043;-70
2022/09/21 04:40:22;;;;;;;1.53;0.80;;;5.60;93.90;;;;;;5085981;28;20047;-70
2022/09/21 04:42:52;;;;;;;5.23;0.87;;;5.60;93.90;;;;;;5086012;28;20195;-70
2022/09/21 04:45:19;;;;;;;2.10;0.65;;;5.60;94.00;;;;;;5069848;28;20040;-70
2022/09/21 04:47:45;;;;;;;3.00;1.15;;;5.60;93.90;;;;;;5086401;28;20063;-70
2022/09/21 04:50:11;;;;;;;3.03;0.83;;;5.50;93.90;;;;;;5085858;28;20083;-70
2022/09/21 04:52:36;;;;;;;3.43;1.00;;;5.50;94.00;;;;;;5085453;28;20040;-70
2022/09/21 04:55:02;;;;;;;4.27;1.20;;;5.50;93.90;;;;;;5065826;28;20069;-70
2022/09/21 04:57:28;;;;;;;3.85;1.20;;;5.40;93.90;;;;;;5085329;28;20463;-70
2022/09/21 04:59:54;;;;;;;3.73;1.20;;;5.40;93.90;;;;;;5077049;28;20075;-69
2022/09/21 05:02:19;;;;;;;4.50;1.10;;;5.40;94.00;;;;;;5082487;28;20048;-70
2022/09/21 05:04:45;;;;;;;2.93;1.20;;;5.40;94.00;;;;;;5076804;28;20036;-70
2022/09/21 05:07:11;;;;;;;4.60;1.20;;;5.40;94.10;;;;;;5080255;28;20472;-70
2022/09/21 05:12:21;;;;;;;6.57;1.42;;;5.40;94.30;;;;;;5087812;28;20047;-70
2022/09/21 05:14:46;;;;;;;3.73;1.20;;;5.50;94.30;;;;;;5069050;28;20398;-70
2022/09/21 05:17:12;;;;;;;1.63;0.90;;;5.50;94.70;;;;;;5084799;28;20047;-70
2022/09/21 05:19:38;;;;;;;3.97;1.23;;;5.60;94.80;;;;;;5067667;28;20036;-70
2022/09/21 05:22:04;;;;;;;3.95;1.00;;;5.60;94.60;;;;;;5068419;28;20042;-70
2022/09/21 05:24:30;;;;;;;3.53;1.00;;;5.60;94.60;;;;;;5069089;28;20497;-70
2022/09/21 05:26:55;;;;;;;2.27;0.90;;;5.60;94.50;;;;;;5067385;28;20051;-70
2022/09/21 05:29:21;;;;;;;3.10;1.17;;;5.60;94.60;;;;;;5075131;28;20400;-70
2022/09/21 05:31:57;;;;;;;3.58;1.00;;;5.60;94.50;;;;;;5073594;28;20050;-70
2022/09/21 05:34:30;;;;;;;3.72;1.08;;;5.60;94.50;;;;;;5070315;28;20039;-70
2022/09/21 05:37:02;;;;;;;3.60;1.20;;;5.60;94.60;;;;;;5084231;28;20029;-70
2022/09/21 05:39:28;;;;;;;4.07;1.45;;;5.60;94.60;;;;;;5068155;28;20428;-70
2022/09/21 05:41:54;;;;;;;4.40;1.27;;;5.70;94.70;;;;;;5068742;28;20982;-70
2022/09/21 05:44:20;;;;;;;2.85;1.10;;;5.70;94.60;;;;;;5061264;28;20120;-70
2022/09/21 05:47:06;;;;;;;2.63;1.20;;;5.70;94.60;;;;;;5068309;28;20105;-70
2022/09/21 05:50:10;;;;;;;3.15;1.30;;;5.80;94.70;;;;;;5086247;28;20173;-70
2022/09/21 05:53:15;;;;;;;4.88;1.30;;;5.80;94.60;;;;;;5084992;28;20050;-70
2022/09/21 05:55:46;;;;;;;3.15;1.30;;;5.90;94.60;;;;;;5092581;28;20496;-70
2022/09/21 05:58:27;;;;;;;4.20;1.65;;;5.90;94.50;;;;;;5079849;28;20044;-70
2022/09/21 06:01:26;;;;;;;4.00;1.52;;;5.90;94.50;;;;;;5072412;28;20404;-70
2022/09/21 06:03:53;;;;;;;5.18;1.42;;;6.00;94.50;;;;;;5064104;28;20048;-70
2022/09/21 06:06:19;;;;;;;4.90;1.65;;;6.00;94.60;;;;;;5070881;28;20041;-70
2022/09/21 06:08:45;;;;;;;4.83;1.80;;;6.00;94.50;;;;;;5060696;28;20092;-70
2022/09/21 06:11:12;;;;;;;4.97;1.60;;;6.10;94.60;;;;;;5080402;28;20297;-70
2022/09/21 06:13:39;;;;;;;3.67;1.27;;;6.10;94.50;;;;;;5084627;28;20040;-70
2022/09/21 06:16:06;;;;;;;4.03;1.55;;;6.20;94.60;;;;;;5090606;28;20050;-70
2022/09/21 06:18:39;;;;;;;2.95;1.15;;;6.30;94.60;;;;;;5052340;28;20501;-70
2022/09/21 06:21:06;;;;;;;2.13;0.82;;;6.40;94.70;;;;;;5096302;28;20391;-70
2022/09/21 06:23:32;;;;;;;3.58;0.80;;;6.50;94.70;;;;;;5078894;28;20452;-70
2022/09/21 06:25:58;;;;;;;1.50;0.80;;;6.60;94.60;;;;;;5059791;28;20044;-70
2022/09/21 06:28:25;;;;;;;1.23;0.60;;;6.70;94.60;;;;;;5088792;28;20050;-70
2022/09/21 06:30:52;;;;;;;2.20;0.65;;;6.70;94.60;;;;;;5104644;27;20311;-70
2022/09/21 06:33:22;;;;;;;4.15;0.80;;;6.80;94.70;;;;;;5074947;28;20323;-70
2022/09/21 06:35:53;;;;;;;2.85;0.60;;;6.90;94.60;;;;;;5076415;28;20032;-70
2022/09/21 06:38:19;;;;;;;1.92;0.52;;;7.00;94.70;;;;;;5086966;28;20048;-70
2022/09/21 06:40:45;;;;;;;1.17;0.50;;;7.10;94.70;;;;;;5071292;28;20048;-70
2022/09/21 06:43:10;;;;;;;2.30;0.50;;;7.20;94.80;;;;;;5072318;28;20102;-70
2022/09/21 06:45:36;;;;;;;2.33;0.83;;;7.30;94.90;;;;;;5063355;28;20040;-70
2022/09/21 06:48:02;;;;;;;1.50;0.80;;;7.40;94.80;;;;;;5058104;28;20052;-70
2022/09/21 06:50:27;;;;;;;1.50;0.90;;;7.50;95.10;;;;;;5071172;28;20381;-70
2022/09/21 06:52:53;;;;;;;1.60;1.10;;;7.60;95.10;;;;;;5087748;28;20077;-70
2022/09/21 06:55:19;;;;;;;2.27;1.63;;;7.70;95.30;;;;;;5089918;28;20453;-70
2022/09/21 06:57:45;;;;;;;2.83;1.60;;;7.90;95.30;;;;;;5093059;28;20036;-70
2022/09/21 07:00:12;;;;;;;5.60;1.70;;;8.00;95.40;;;;;;5087121;28;20036;-70
2022/09/21 07:02:43;;;;;;;2.40;1.75;;;8.10;95.40;;;;;;5074217;28;20376;-70
2022/09/21 07:05:08;;;;;;;3.67;1.38;;;8.20;95.40;;;;;;5087694;28;20055;-70
2022/09/21 07:07:35;;;;;;;2.40;1.53;;;8.40;95.40;;;;;;5054922;28;20047;-70
2022/09/21 07:10:01;;;;;;;2.35;1.50;;;8.50;95.50;;;;;;5070621;28;20048;-70
2022/09/21 07:12:33;;;;;;;2.70;1.60;;;8.60;95.50;;;;;;5065228;28;20032;-70
2022/09/21 07:14:59;;;;;;;2.97;1.10;;;8.80;95.70;;;;;;5070721;28;20051;-70
2022/09/21 07:17:26;;;;;;;3.72;1.60;;;8.90;95.70;;;;;;5055075;28;20488;-70
2022/09/21 07:19:51;;;;;;;1.90;1.20;;;9.10;95.70;;;;;;5087476;28;20507;-70
2022/09/21 07:22:17;;;;;;;3.43;1.47;;;9.20;95.90;;;;;;5068921;28;20074;-70
2022/09/21 07:24:43;;;;;;;3.03;1.27;;;9.40;95.90;;;;;;5080924;28;20059;-70
2022/09/21 07:27:08;;;;;;;2.60;1.27;;;9.50;96.00;;;;;;5045569;28;20044;-71
2022/09/21 07:29:34;;;;;;;5.47;1.47;;;9.70;96.10;;;;;;5073586;28;20478;-71
2022/09/21 07:32:00;;;;;;;3.13;1.50;;;9.90;96.40;;;;;;5067640;28;20164;-71
2022/09/21 07:34:26;;;;;;;4.50;1.00;;;10.10;96.80;;;;;;5056039;28;20122;-71
2022/09/21 07:36:52;;;;;;;4.37;1.23;;;10.30;96.70;;;;;;5084352;28;20032;-71
2022/09/21 07:39:18;;;;;;;5.35;1.10;;;10.40;96.60;;;;;;5066767;28;20044;-71
2022/09/21 07:41:43;;;;;;;6.80;1.40;;;10.60;96.50;;;;;;5066849;28;20051;-71
2022/09/21 07:44:09;;;;;;;3.47;1.20;;;10.70;96.50;;;;;;5063292;28;20092;-71
2022/09/21 07:46:35;;;;;;;4.97;1.60;;;10.90;96.40;;;;;;5056808;28;20048;-71
2022/09/21 07:49:03;;;;;;;6.82;1.30;;;11.10;96.50;;;;;;5056520;28;20420;-72
2022/09/21 07:51:28;;;;;;;4.13;1.15;;;11.20;96.40;;;;;;5091287;28;20044;-71
2022/09/21 07:53:55;;;;;;;5.07;2.20;;;11.40;96.00;;;;;;5064801;28;20534;-71
2022/09/21 07:56:21;;;;;;;5.03;1.10;;;11.50;96.00;;;;;;5083545;28;20155;-71
2022/09/21 07:59:05;;;;;;;1.77;0.90;;;11.60;95.60;;;;;;5085068;28;20123;-72
2022/09/21 08:01:37;;;;;;;6.85;1.25;;;11.80;95.70;;;;;;5082677;28;20058;-72
2022/09/21 08:04:05;;;;;;;8.93;2.77;;;12.00;95.20;;;;;;5089752;28;20148;-71
2022/09/21 08:06:32;;;;;;;7.27;1.20;;;12.20;94.70;;;;;;5066889;28;20772;-71
2022/09/21 08:08:59;;;;;;;3.97;1.30;;;12.30;94.00;;;;;;5088419;28;20302;-71
2022/09/21 08:11:26;;;;;;;3.27;0.77;;;12.50;92.60;;;;;;5057093;28;20820;-72
2022/09/21 08:13:54;;;;;;;3.97;0.80;;;12.60;91.70;;;;;;5082025;28;20574;-72
2022/09/21 08:16:20;;;;;;;7.47;0.90;;;12.70;91.10;;;;;;5084968;28;20300;-72
2022/09/21 08:18:46;;;;;;;6.03;0.77;;;12.90;90.80;;;;;;5071822;28;20688;-72
2022/09/21 08:21:12;;;;;;;2.03;0.53;;;13.00;90.10;;;;;;5067802;28;20173;-72
2022/09/21 08:23:41;;;;;;;4.73;1.13;;;13.10;89.20;;;;;;5069831;28;20116;-72
2022/09/21 08:26:11;;;;;;;4.93;0.43;;;13.20;86.00;;;;;;5085725;28;20282;-72
2022/09/21 08:28:37;;;;;;;6.57;0.50;;;13.30;85.20;;;;;;5086022;28;20382;-69
2022/09/21 08:31:05;;;;;;;8.17;0.90;;;13.40;83.20;;;;;;5085787;28;20294;-69
2022/09/21 08:33:31;;;;;;;4.73;0.53;;;13.50;84.10;;;;;;5067802;28;20274;-69
2022/09/21 08:35:58;;;;;;;7.60;0.60;;;13.60;83.90;;;;;;5071367;28;20292;-69
2022/09/21 08:38:24;;;;;;;9.67;0.73;;;13.60;83.80;;;;;;5095448;28;20051;-70
2022/09/21 08:40:52;;;;;;;3.53;0.37;;;13.70;83.70;;;;;;5085181;28;20286;-70
2022/09/21 08:43:36;;;;;;;7.47;1.53;;;13.80;80.50;;;;;;5056106;28;20782;-69
2022/09/21 08:46:12;;;;;;;3.13;0.30;;;13.90;81.70;;;;;;5085331;28;20282;-69
2022/09/21 08:48:45;;;;;;;5.23;0.60;;;13.90;80.80;;;;;;5069364;28;20392;-69
2022/09/21 08:51:20;;;;;;;4.47;0.40;;;14.00;80.00;;;;;;5075354;28;20666;-69
2022/09/21 08:53:51;;;;;;;4.10;0.80;;;14.10;79.60;;;;;;5077656;28;20281;-69
2022/09/21 08:56:17;;;;;;;6.07;0.93;;;14.20;77.50;;;;;;5095564;28;20492;-69
2022/09/21 08:58:43;;;;;;;4.53;0.63;;;14.30;75.50;;;;;;5047736;28;20282;-69
2022/09/21 09:01:12;;;;;;;5.43;0.80;;;14.40;75.70;;;;;;5066559;28;20286;-69
2022/09/21 09:03:46;;;;;;;3.60;0.40;;;14.60;74.30;;;;;;5084644;28;20121;-69
2022/09/21 09:06:58;;;;;;;2.20;0.30;;;14.70;72.80;;;;;;5086129;28;20274;-69
2022/09/21 09:09:56;;;;;;;2.73;0.30;;;14.90;70.70;;;;;;5037777;28;20663;-71
2022/09/21 09:12:36;;;;;;;2.40;0.20;;;15.20;72.80;;;;;;5050981;28;20282;-71
2022/09/21 09:15:54;;;;;;;3.77;0.50;;;15.50;71.90;;;;;;5068112;28;20281;-70
2022/09/21 09:18:38;;;;;;;4.90;0.40;;;15.70;72.00;;;;;;5053036;28;20273;-70
2022/09/21 09:21:16;;;;;;;3.30;0.20;;;16.00;72.80;;;;;;5085005;28;20278;-70
2022/09/21 09:24:11;;;;;;;3.73;0.43;;;16.30;71.70;;;;;;5083333;28;20377;-71
2022/09/21 09:26:54;;;;;;;5.23;0.63;;;16.60;72.10;;;;;;5082119;28;20328;-71
2022/09/21 09:29:31;;;;;;;3.27;0.47;;;16.80;72.00;;;;;;5067406;28;20302;-71
2022/09/21 09:32:00;;;;;;;1.97;0.20;;;16.90;69.20;;;;;;5084671;28;20301;-70
2022/09/21 09:34:34;;;;;;;6.37;0.40;;;16.80;68.40;;;;;;5083703;28;20638;-71
2022/09/21 09:37:16;;;;;;;3.65;0.65;;;16.60;66.40;;;;;;5066895;28;20778;-71
2022/09/21 09:39:46;;;;;;;2.90;0.40;;;16.40;66.70;;;;;;5060613;28;20101;-71
2022/09/21 09:42:40;;;;;;;3.03;0.40;;;16.40;68.10;;;;;;5085437;28;20278;-71
2022/09/21 09:45:30;;;;;;;6.10;0.43;;;16.40;67.20;;;;;;5084743;28;20286;-71
2022/09/21 09:47:55;;;;;;;2.10;0.40;;;16.60;66.40;;;;;;5085293;28;20750;-70
2022/09/21 09:50:32;;;;;;;3.67;0.40;;;16.60;64.30;;;;;;5086411;28;20365;-70
2022/09/21 09:53:19;;;;;;;3.17;0.67;;;16.60;64.50;;;;;;5069438;28;20119;-70
2022/09/21 09:55:57;;;;;;;3.87;0.30;;;16.50;65.00;;;;;;5076366;28;20843;-71
2022/09/21 09:58:49;;;;;;;4.53;0.47;;;16.40;65.50;;;;;;5084869;28;20282;-71
2022/09/21 10:01:35;;;;;;;5.07;0.50;;;16.30;65.40;;;;;;5071075;28;20285;-70
2022/09/21 10:04:07;;;;;;;7.50;0.63;;;16.20;65.40;;;;;;5083415;28;20320;-70
2022/09/21 10:06:33;;;;;;;2.10;0.23;;;16.30;65.20;;;;;;5069047;28;20861;-70
2022/09/21 10:08:59;;;;;;;1.97;0.47;;;16.40;64.10;;;;;;5067260;28;20393;-70
2022/09/21 10:11:35;;;;;;;5.37;0.60;;;16.50;63.90;;;;;;5085278;28;20726;-70
2022/09/21 10:14:13;;;;;;;3.67;0.60;;;16.70;62.60;;;;;;5076057;28;20063;-71
2022/09/21 10:16:40;;;;;;;4.30;0.50;;;16.90;62.70;;;;;;5067706;28;20280;-70
2022/09/21 10:19:16;;;;;;;3.37;0.30;;;17.00;62.70;;;;;;5048710;28;20274;-70
2022/09/21 10:21:42;;;;;;;5.03;0.50;;;17.00;61.60;;;;;;5091506;28;20780;-70
2022/09/21 10:24:29;;;;;;;4.77;0.40;;;17.00;62.20;;;;;;5069340;28;20311;-70
2022/09/21 10:27:28;;;;;;;5.80;0.50;;;16.90;61.30;;;;;;5081865;28;20347;-70
2022/09/21 10:29:54;;;;;;;4.10;0.83;;;16.80;59.70;;;;;;5031895;28;20379;-70
2022/09/21 10:32:25;;;;;;;2.80;0.30;;;16.90;60.00;;;;;;5064049;28;20281;-70
2022/09/21 10:35:06;;;;;;;4.60;0.50;;;16.90;58.80;;;;;;5080895;28;20717;-70
2022/09/21 10:37:39;;;;;;;4.23;0.63;;;16.80;59.20;;;;;;5064984;28;20320;-70
2022/09/21 10:40:21;;;;;;;7.83;0.60;;;16.50;58.90;;;;;;5066195;28;20279;-70
2022/09/21 10:42:49;;;;;;;2.90;0.30;;;16.20;59.60;;;;;;5087212;28;20274;-70
2022/09/21 10:45:35;;;;;;;2.67;0.40;;;16.00;61.70;;;;;;5067286;28;20298;-70
2022/09/21 10:48:04;;;;;;;2.87;0.20;;;15.90;61.90;;;;;;5086514;28;20278;-70
2022/09/21 10:50:40;;;;;;;4.30;0.40;;;15.70;61.70;;;;;;5088988;28;20273;-70
2022/09/21 10:53:09;;;;;;;7.13;0.53;;;15.60;62.20;;;;;;5071427;28;20749;-70
2022/09/21 10:55:49;;;;;;;4.93;0.80;;;15.60;63.70;;;;;;5089796;28;20277;-70
2022/09/21 10:58:15;;;;;;;5.40;0.43;;;15.60;64.00;;;;;;5090764;28;20403;-70
2022/09/21 11:00:48;;;;;;;2.70;0.57;;;15.60;64.50;;;;;;5077438;28;20707;-70
2022/09/21 11:03:40;;;;;;;4.97;0.93;;;15.60;63.60;;;;;;5098075;28;20274;-71
2022/09/21 11:06:20;;;;;;;2.60;0.30;;;15.50;63.40;;;;;;5087877;28;20274;-70
2022/09/21 11:09:27;;;;;;;4.03;0.43;;;15.50;64.20;;;;;;5071198;28;20825;-70
2022/09/21 11:12:05;;;;;;;4.53;0.40;;;15.60;63.40;;;;;;5085421;28;20283;-70
2022/09/21 11:14:42;;;;;;;4.47;0.50;;;15.60;64.00;;;;;;5070375;28;20286;-71
2022/09/21 11:17:45;;;;;;;2.80;0.37;;;15.60;64.30;;;;;;5087105;28;20270;-71
2022/09/21 11:20:33;;;;;;;4.97;0.30;;;15.80;62.00;;;;;;5076380;28;20323;-71
2022/09/21 11:23:32;;;;;;;2.67;0.40;;;16.20;62.60;;;;;;5087932;28;20290;-71
2022/09/21 11:26:30;;;;;;;4.60;0.40;;;16.40;60.70;;;;;;5074971;28;20293;-70
2022/09/21 11:29:22;;;;;;;3.20;0.20;;;16.50;61.80;;;;;;5092253;28;20392;-71
2022/09/21 11:32:06;;;;;;;3.10;0.30;;;16.50;60.50;;;;;;5087661;28;20777;-71
2022/09/21 11:34:59;;;;;;;5.97;0.97;;;16.30;60.80;;;;;;5086478;28;20361;-71
2022/09/21 11:37:34;;;;;;;3.17;0.30;;;16.20;61.30;;;;;;5070868;28;20635;-71
2022/09/21 11:40:14;;;;;;;;;;;16.00;61.50;;;;;;5087854;28;20285;-71
2022/09/21 11:43:02;;;;;;;1.97;0.33;;;15.80;60.20;;;;;;5074584;28;20404;-70
2022/09/21 11:45:53;;;;;;;5.30;0.70;;;15.60;62.30;;;;;;5059730;28;20702;-70
2022/09/21 11:48:24;;;;;;;2.67;0.30;;;15.50;61.70;;;;;;5050000;28;20310;-71
2022/09/21 11:51:02;;;;;;;2.50;0.40;;;15.40;62.80;;;;;;5069410;28;20274;-71
2022/09/21 11:53:45;;;;;;;6.53;0.40;;;15.30;62.60;;;;;;5077572;28;20278;-71
2022/09/21 11:56:42;;;;;;;2.93;0.33;;;15.20;63.70;;;;;;5085142;28;20331;-71
2022/09/21 11:59:38;;;;;;;2.87;0.50;;;15.20;63.80;;;;;;5086611;28;20853;-70
2022/09/21 12:02:13;;;;;;;4.80;0.47;;;15.30;63.30;;;;;;5084733;28;20418;-70
2022/09/21 12:04:59;;;;;;;4.82;0.50;;;15.40;63.50;;;;;;5086370;28;20285;-71
2022/09/21 12:07:47;;;;;;;4.60;0.70;;;15.50;62.90;;;;;;5080424;28;20032;-71
2022/09/21 12:10:21;;;;;;;1.57;0.20;;;15.40;61.20;;;;;;5092566;28;20309;-71
2022/09/21 12:13:20;;;;;;;2.53;0.43;;;15.40;62.40;;;;;;5068737;28;20282;-70
2022/09/21 12:15:55;;;;;;;4.33;0.53;;;15.30;62.70;;;;;;5054844;28;20282;-70
2022/09/21 12:18:46;;;;;;;1.85;0.38;;;15.30;63.40;;;;;;5070545;28;20277;-70
2022/09/21 12:21:44;;;;;;;6.90;0.50;;;15.30;63.10;;;;;;5096470;28;20564;-71
2022/09/21 12:24:19;;;;;;;1.87;0.20;;;15.30;62.90;;;;;;4999632;28;20381;-70
2022/09/21 12:26:52;;;;;;;3.92;0.50;;;15.30;63.20;;;;;;5057382;28;20405;-70
2022/09/21 12:29:35;;;;;;;2.53;0.40;;;15.40;63.10;;;;;;5075324;28;20047;-70
2022/09/21 12:32:04;;;;;;;2.00;0.30;;;15.60;63.10;;;;;;5078950;28;20278;-70
2022/09/21 12:34:52;;;;;;;4.47;0.60;;;16.00;62.20;;;;;;5083405;28;20278;-70
2022/09/21 12:37:25;;;;;;;2.50;0.40;;;16.50;61.30;;;;;;5068297;28;20321;-70
2022/09/21 12:40:24;;;;;;;4.53;0.57;;;16.60;61.00;;;;;;5093729;28;20350;-70
2022/09/21 12:43:20;;;;;;;3.50;0.60;;;16.60;59.90;;;;;;5083243;28;20575;-71
2022/09/21 12:46:09;;;;;;;2.97;0.27;;;16.60;59.50;;;;;;5064006;28;20650;-71
2022/09/21 12:48:37;;;;;;;3.57;0.30;;;16.70;59.30;;;;;;5061604;28;20410;-70
2022/09/21 12:51:06;;;;;;;4.17;0.50;;;16.80;59.40;;;;;;5057205;28;20290;-70
2022/09/21 12:53:37;;;;;;;3.57;0.50;;;16.90;58.90;;;;;;5064650;28;20299;-71
2022/09/21 12:56:11;;;;;;;2.60;0.60;;;17.10;58.90;;;;;;5055604;28;20320;-71
2022/09/21 12:58:50;;;;;;;4.13;0.45;;;17.50;57.80;;;;;;5041304;28;20429;-70
2022/09/21 13:01:47;;;;;;;2.63;0.50;;;17.70;57.90;;;;;;5061385;28;20044;-70
2022/09/21 13:04:42;;;;;;;4.10;0.47;;;18.00;57.70;;;;;;5013158;28;20305;-71
2022/09/21 13:07:16;;;;;;;6.13;0.77;;;18.30;56.10;;;;;;5062944;28;20702;-70
2022/09/21 13:09:44;;;;;;;4.55;0.75;;;18.50;55.40;;;;;;5059418;28;20055;-70
2022/09/21 13:12:23;;;;;;;3.70;0.30;;;18.60;54.90;;;;;;5048832;28;20526;-70
2022/09/21 13:15:01;;;;;;;2.07;0.27;;;18.80;55.30;;;;;;5068269;28;20285;-71
2022/09/21 13:17:32;;;;;;;3.50;0.50;;;19.00;55.00;;;;;;5062225;28;20282;-70
2022/09/21 13:20:03;;;;;;;2.60;0.40;;;19.30;55.20;;;;;;5046321;28;20316;-70
2022/09/21 13:22:34;;;;;;;2.67;0.33;;;19.30;53.00;;;;;;5064864;28;20387;-70
2022/09/21 13:25:07;;;;;;;4.40;0.50;;;19.20;52.90;;;;;;5066352;28;20749;-70
2022/09/21 13:28:03;;;;;;;3.53;0.60;;;19.10;52.90;;;;;;5061997;28;20287;-70